Time;durP1;ratioP1;P1;durP2;ratioP2;P2;SDS_P1;SDS_P2;PMS_P1;PMS_P2;Temp;Humidity;BMP_temperature;BMP_pressure;BME280_temperature;BME280_humidity;BME280_pressure;Samples;Min_cycle;Max_cycle;Signal;HPM_P1;HPM_P2
2023/08/01 00:01:16;;;;;;;;;;;;;;;;;;;;;
2023/08/01 00:06:42;;;;;;;7.20;3.60;;;;;;;17.84;71.62;97996.84;226108;1279;22689;-77
2023/08/01 00:12:04;;;;;;;5.60;3.10;;;;;;;17.81;71.72;97996.40;225208;1284;23100;-77
2023/08/01 00:17:10;;;;;;;5.10;3.70;;;;;;;17.78;71.79;97996.60;225167;1281;23986;-76
2023/08/01 00:22:15;;;;;;;5.30;3.40;;;;;;;17.76;71.93;97990.53;225208;1284;22568;-76
2023/08/01 00:27:18;;;;;;;5.60;3.00;;;;;;;17.73;71.85;97984.57;225342;1279;22533;-76
2023/08/01 00:32:21;;;;;;;7.90;3.00;;;;;;;17.70;71.94;97977.95;226013;1271;22550;-75
2023/08/01 00:37:26;;;;;;;5.80;3.50;;;;;;;17.66;71.94;97970.88;226028;1278;22520;-76
2023/08/01 00:42:28;;;;;;;8.40;3.20;;;;;;;17.61;72.05;97962.36;226046;1278;22533;-76
2023/08/01 00:47:31;;;;;;;5.90;3.10;;;;;;;17.58;72.12;97955.23;225997;1278;24196;-76
2023/08/01 00:52:35;;;;;;;5.30;2.90;;;;;;;17.58;72.14;97945.13;226130;1276;22652;-76
2023/08/01 00:57:37;;;;;;;4.40;2.50;;;;;;;17.59;72.03;97931.15;225891;1278;22627;-76
2023/08/01 01:02:40;;;;;;;4.40;2.70;;;;;;;17.60;71.95;97919.45;226050;1275;25329;-76
2023/08/01 01:07:45;;;;;;;3.70;2.50;;;;;;;17.62;71.95;97905.80;225968;1274;23677;-76
2023/08/01 01:12:48;;;;;;;5.30;2.70;;;;;;;17.63;71.77;97894.16;226006;1279;25445;-76
2023/08/01 01:17:50;;;;;;;3.50;2.80;;;;;;;17.63;71.76;97885.73;225914;1278;22546;-76
2023/08/01 01:23:26;;;;;;;4.20;2.60;;;;;;;17.63;71.65;97878.42;225920;1278;22533;-76
2023/08/01 01:28:34;;;;;;;4.90;2.40;;;;;;;17.62;71.44;97872.30;226104;1279;22558;-75
2023/08/01 01:33:42;;;;;;;4.40;2.30;;;;;;;17.61;71.26;97865.51;226040;1277;22534;-77
2023/08/01 01:38:44;;;;;;;3.00;2.20;;;;;;;17.60;71.12;97851.98;226033;1278;22589;-76
2023/08/01 01:43:46;;;;;;;3.30;2.40;;;;;;;17.58;71.11;97845.18;226120;1276;22564;-76
2023/08/01 01:48:48;;;;;;;3.90;2.10;;;;;;;17.56;71.06;97838.85;225925;1278;22553;-77
2023/08/01 01:53:54;;;;;;;3.20;2.00;;;;;;;17.51;71.04;97837.85;226054;1277;22594;-77
2023/08/01 01:58:57;;;;;;;5.10;2.50;;;;;;;17.46;71.05;97836.05;225888;1275;22534;-77
2023/08/01 02:04:15;;;;;;;3.60;2.30;;;;;;;17.41;71.03;97827.46;226127;1278;22637;-76
2023/08/01 02:09:18;;;;;;;4.20;2.20;;;;;;;17.38;70.96;97817.55;225990;1278;22538;-75
2023/08/01 02:14:23;;;;;;;3.80;2.40;;;;;;;17.35;70.91;97814.29;226038;1276;22533;-76
2023/08/01 02:19:26;;;;;;;3.50;2.20;;;;;;;17.32;71.01;97809.73;225958;1278;22541;-77
2023/08/01 02:24:40;;;;;;;2.90;2.00;;;;;;;17.31;71.11;97801.43;225981;1271;22541;-76
2023/08/01 02:29:45;;;;;;;6.00;2.50;;;;;;;17.29;71.01;97795.33;226010;1278;25399;-76
2023/08/01 02:34:51;;;;;;;4.30;2.00;;;;;;;17.27;70.85;97792.86;226123;1276;22545;-76
2023/08/01 02:40:24;;;;;;;3.90;2.00;;;;;;;17.27;70.98;97786.71;225834;1278;23257;-76
2023/08/01 02:45:27;;;;;;;5.80;2.00;;;;;;;17.27;70.81;97783.61;226143;1275;22561;-75
2023/08/01 02:50:33;;;;;;;4.40;1.90;;;;;;;17.30;70.80;97778.30;226142;1276;22643;-77
2023/08/01 02:55:38;;;;;;;6.90;3.10;;;;;;;17.32;70.74;97773.02;225999;1275;22661;-77
2023/08/01 03:01:09;;;;;;;;;;;;;;;;;;;;;
2023/08/01 03:06:12;;;;;;;2.30;1.80;;;;;;;17.36;70.56;97770.14;225945;1278;22574;-76
2023/08/01 03:11:15;;;;;;;3.50;1.70;;;;;;;17.36;70.66;97761.52;225950;1278;25454;-76
2023/08/01 03:16:19;;;;;;;4.50;2.30;;;;;;;17.36;70.49;97749.04;226076;1277;22541;-76
2023/08/01 03:21:44;;;;;;;4.80;2.00;;;;;;;17.34;70.44;97749.56;226042;1275;22544;-77
2023/08/01 03:27:09;;;;;;;3.90;1.90;;;;;;;17.33;70.40;97748.27;226152;1279;22550;-75
2023/08/01 03:32:21;;;;;;;4.30;1.90;;;;;;;17.31;70.40;97743.02;226058;1277;22547;-75
2023/08/01 03:37:45;;;;;;;6.00;2.60;;;;;;;17.31;70.43;97749.52;225937;1279;24264;-76
2023/08/01 03:42:51;;;;;;;4.20;2.20;;;;;;;17.33;70.42;97745.69;226045;1278;24210;-76
2023/08/01 03:48:02;;;;;;;4.00;2.40;;;;;;;17.44;70.45;97748.48;226000;1279;22556;-76
2023/08/01 03:53:04;;;;;;;2.80;2.00;;;;;;;17.47;70.37;97744.94;226038;1277;22966;-76
2023/08/01 03:58:35;;;;;;;3.30;2.10;;;;;;;17.49;70.35;97744.73;226090;1279;25249;-77
2023/08/01 04:04:00;;;;;;;4.90;1.90;;;;;;;17.54;70.49;97746.95;226173;1279;22522;-76
2023/08/01 04:09:03;;;;;;;3.20;2.20;;;;;;;17.59;70.44;97746.19;226142;1275;22548;-76
2023/08/01 04:14:05;;;;;;;4.00;2.10;;;;;;;17.70;70.43;97743.07;225921;1278;22575;-76
2023/08/01 04:19:28;;;;;;;5.90;2.10;;;;;;;17.86;70.44;97746.20;225893;1280;22538;-76
2023/08/01 04:24:30;;;;;;;5.30;2.00;;;;;;;18.07;70.30;97737.68;226038;1279;22541;-77
2023/08/01 04:29:42;;;;;;;3.00;1.80;;;;;;;18.33;70.03;97734.35;226168;1275;22533;-77
2023/08/01 04:34:44;;;;;;;3.90;2.00;;;;;;;18.55;69.82;97728.64;226206;1276;22537;-76
2023/08/01 04:39:47;;;;;;;5.20;2.20;;;;;;;18.71;69.46;97729.59;226177;1275;22489;-76
2023/08/01 04:44:49;;;;;;;2.70;1.90;;;;;;;18.81;69.30;97727.62;225989;1278;22651;-77
2023/08/01 04:49:51;;;;;;;3.60;1.50;;;;;;;18.87;69.12;97729.86;226049;1278;22584;-76
2023/08/01 04:54:53;;;;;;;4.70;2.20;;;;;;;18.89;69.02;97729.11;226218;1276;22545;-76
2023/08/01 05:00:03;;;;;;;4.20;1.80;;;;;;;18.89;68.96;97731.85;226099;1278;22671;-76
2023/08/01 05:05:06;;;;;;;3.40;1.90;;;;;;;18.93;68.90;97730.30;226113;1277;23811;-75
2023/08/01 05:10:11;;;;;;;3.50;2.00;;;;;;;18.98;69.04;97730.63;225969;1279;22529;-76
2023/08/01 05:15:15;;;;;;;3.10;1.90;;;;;;;19.07;69.48;97730.20;226029;1278;22528;-76
2023/08/01 05:20:17;;;;;;;5.80;2.10;;;;;;;19.10;69.84;97735.13;226152;1278;22549;-75
2023/08/01 05:25:22;;;;;;;4.70;2.30;;;;;;;19.16;70.14;97736.19;225965;1278;22638;-77
2023/08/01 05:30:25;;;;;;;3.60;2.10;;;;;;;19.26;70.45;97740.52;226011;1277;22511;-75
2023/08/01 05:35:30;;;;;;;5.60;2.20;;;;;;;19.35;70.73;97746.77;226003;1273;22550;-76
2023/08/01 05:40:33;;;;;;;4.20;2.20;;;;;;;19.42;71.06;97745.08;225684;1268;23989;-75
2023/08/01 05:45:36;;;;;;;3.20;2.20;;;;;;;19.39;71.36;97746.52;225626;1280;23017;-75
2023/08/01 05:50:38;;;;;;;2.60;2.10;;;;;;;19.35;71.93;97741.10;225376;1256;22551;-75
2023/08/01 05:55:42;;;;;;;5.10;2.80;;;;;;;19.39;72.48;97720.58;225320;1260;25527;-79
2023/08/01 06:00:45;;;;;;;5.10;3.80;;;;;;;19.45;72.34;97720.93;224936;1266;24343;-76
2023/08/01 06:05:47;;;;;;;4.20;2.60;;;;;;;19.54;72.63;97714.84;225201;1256;22576;-76
2023/08/01 06:10:50;;;;;;;3.70;2.30;;;;;;;19.72;72.79;97712.17;224951;1275;23024;-78
2023/08/01 06:15:52;;;;;;;3.70;2.30;;;;;;;19.97;72.56;97687.58;224803;1260;24492;-77
2023/08/01 06:20:58;;;;;;;3.80;3.00;;;;;;;20.23;72.32;97679.82;225109;1264;22695;-76
2023/08/01 06:26:04;;;;;;;4.90;3.00;;;;;;;20.47;72.24;97670.95;224970;1259;22575;-76
2023/08/01 06:31:06;;;;;;;4.60;2.60;;;;;;;20.72;71.78;97679.58;224942;1262;22541;-76
2023/08/01 06:36:32;;;;;;;4.10;2.70;;;;;;;21.01;71.56;97677.95;225004;1272;22534;-76
2023/08/01 06:41:45;;;;;;;3.50;2.70;;;;;;;21.24;71.00;97689.30;225093;1260;22562;-76
2023/08/01 06:46:50;;;;;;;5.10;3.20;;;;;;;21.29;70.39;97692.27;225354;1272;22579;-76
2023/08/01 06:51:58;;;;;;;4.30;3.00;;;;;;;21.24;70.30;97692.64;225209;1268;23833;-76
2023/08/01 06:57:11;;;;;;;4.00;3.00;;;;;;;21.04;70.83;97686.23;225381;1273;22548;-77
2023/08/01 07:02:22;;;;;;;6.00;3.00;;;;;;;21.06;71.55;97675.55;225414;1262;22593;-76
2023/08/01 07:07:25;;;;;;;5.70;3.00;;;;;;;21.32;71.67;97676.07;225306;1264;22549;-77
2023/08/01 07:12:27;;;;;;;5.20;3.40;;;;;;;21.67;71.69;97670.26;225253;1264;25332;-76
2023/08/01 07:17:42;;;;;;;5.40;4.10;;;;;;;21.90;71.16;97672.14;225547;1275;22540;-76
2023/08/01 07:22:44;;;;;;;5.50;3.50;;;;;;;21.94;70.98;97670.41;225481;1261;22535;-76
2023/08/01 07:27:46;;;;;;;6.50;3.80;;;;;;;21.84;70.85;97678.92;225052;1260;25316;-76
2023/08/01 07:32:58;;;;;;;5.80;4.10;;;;;;;21.83;71.19;97676.84;225406;1268;22571;-77
2023/08/01 07:38:42;;;;;;;6.10;3.80;;;;;;;21.62;71.29;97674.50;225432;1260;22504;-77
2023/08/01 07:44:03;;;;;;;4.80;4.00;;;;;;;21.48;72.22;97677.30;225381;1260;22556;-78
2023/08/01 07:49:18;;;;;;;6.30;3.70;;;;;;;21.39;72.51;97668.63;224834;1263;22629;-76
2023/08/01 07:54:20;;;;;;;4.90;3.70;;;;;;;21.39;73.22;97667.87;224830;1268;23632;-76
2023/08/01 07:59:23;;;;;;;6.60;4.90;;;;;;;21.53;73.67;97672.30;224769;1265;22637;-75
2023/08/01 08:04:32;;;;;;;5.00;4.20;;;;;;;21.77;73.86;97676.27;224720;1272;22529;-78
2023/08/01 08:09:34;;;;;;;7.40;4.00;;;;;;;21.92;73.63;97664.70;224804;1266;23025;-78
2023/08/01 08:14:38;;;;;;;5.30;4.00;;;;;;;21.95;73.64;97653.90;225278;1266;23007;-77
2023/08/01 08:19:41;;;;;;;6.00;5.00;;;;;;;21.92;73.53;97647.95;225602;1262;22999;-78
2023/08/01 08:24:44;;;;;;;5.00;4.50;;;;;;;21.81;73.91;97648.84;225408;1279;22558;-77
2023/08/01 08:30:10;;;;;;;7.20;4.30;;;;;;;21.67;74.01;97645.23;225512;1272;22530;-77
2023/08/01 08:35:34;;;;;;;;;;;;;;;;;;;;;
2023/08/01 08:41:49;;;;;;;5.10;4.60;;;;;;;21.49;74.52;97636.33;225261;1257;22551;-76
2023/08/01 08:47:21;;;;;;;6.70;4.00;;;;;;;21.49;74.68;97638.48;225265;1264;22619;-76
2023/08/01 08:52:55;;;;;;;7.80;4.40;;;;;;;21.39;74.33;97637.98;224983;1270;25395;-76
2023/08/01 08:58:18;;;;;;;5.60;4.30;;;;;;;21.35;74.58;97635.91;225160;1275;24289;-75
2023/08/01 09:03:23;;;;;;;6.40;4.40;;;;;;;21.31;74.41;97627.56;225144;1260;22541;-76
2023/08/01 09:08:36;;;;;;;4.70;4.20;;;;;;;21.31;74.66;97625.08;224976;1279;22546;-76
2023/08/01 09:13:39;;;;;;;5.20;3.50;;;;;;;21.34;74.82;97624.30;225093;1278;22569;-76
2023/08/01 09:18:57;;;;;;;4.50;3.90;;;;;;;21.37;74.69;97615.23;225077;1263;22687;-76
2023/08/01 09:24:16;;;;;;;5.60;3.90;;;;;;;21.39;74.42;97608.15;225358;1262;22744;-76
2023/08/01 09:29:38;;;;;;;5.30;4.00;;;;;;;21.41;74.17;97599.73;225615;1266;22956;-76
2023/08/01 09:34:47;;;;;;;;;;;;;;;21.42;74.21;97600.11;225562;1263;22517;-76
2023/08/01 09:39:55;;;;;;;6.80;4.00;;;;;;;21.42;74.10;97592.65;225661;1258;22605;-76
2023/08/01 09:44:59;;;;;;;5.90;3.80;;;;;;;21.47;74.40;97584.96;225578;1268;22550;-78
2023/08/01 09:50:01;;;;;;;6.90;3.80;;;;;;;21.51;74.23;97581.10;225488;1269;22543;-79
2023/08/01 09:55:05;;;;;;;4.40;3.30;;;;;;;21.50;73.80;97568.96;225588;1260;22533;-75
2023/08/01 10:00:10;;;;;;;3.60;3.30;;;;;;;21.48;73.88;97562.86;225428;1273;24239;-75
2023/08/01 10:05:14;;;;;;;3.70;3.40;;;;;;;21.46;73.78;97562.45;225421;1267;22553;-76
2023/08/01 10:10:17;;;;;;;5.60;3.30;;;;;;;21.46;73.83;97559.86;225434;1272;24374;-76
2023/08/01 10:15:43;;;;;;;4.70;3.60;;;;;;;21.44;73.87;97560.75;225261;1276;22551;-75
2023/08/01 10:20:49;;;;;;;5.00;4.50;;;;;;;21.36;73.88;97556.33;225603;1258;22547;-77
2023/08/01 10:25:52;;;;;;;5.80;3.80;;;;;;;21.30;73.88;97558.66;225487;1275;22640;-75
2023/08/01 10:30:54;;;;;;;5.30;3.90;;;;;;;21.32;73.81;97565.84;225608;1262;22609;-75
2023/08/01 10:36:32;;;;;;;4.70;3.20;;;;;;;21.24;73.84;97567.16;225367;1263;22555;-78
2023/08/01 10:41:38;;;;;;;3.70;2.70;;;;;;;21.07;74.08;97573.67;225639;1277;22576;-77
2023/08/01 10:46:51;;;;;;;7.30;3.30;;;;;;;20.78;74.50;97575.84;225138;1280;325991;-77
2023/08/01 10:52:27;;;;;;;4.00;3.20;;;;;;;20.54;74.88;97574.61;225631;1263;22597;-78
2023/08/01 10:57:31;;;;;;;4.10;3.70;;;;;;;20.32;75.45;97580.77;225637;1260;22551;-78
2023/08/01 11:02:35;;;;;;;4.60;3.80;;;;;;;20.16;75.91;97581.59;225564;1272;24916;-77
2023/08/01 11:07:40;;;;;;;4.80;3.50;;;;;;;20.09;76.48;97580.71;225550;1273;22545;-79
2023/08/01 11:13:11;;;;;;;4.60;3.50;;;;;;;20.16;77.01;97576.81;225505;1267;22529;-76
2023/08/01 11:18:25;;;;;;;4.10;3.40;;;;;;;20.23;77.18;97567.79;224716;1257;22524;-78
2023/08/01 11:23:49;;;;;;;4.60;3.00;;;;;;;20.07;77.12;97576.66;225162;1259;22565;-79
2023/08/01 11:28:51;;;;;;;4.80;3.60;;;;;;;19.85;77.60;97574.87;224347;1262;22565;-76
2023/08/01 11:33:58;;;;;;;4.90;3.70;;;;;;;19.62;78.24;97572.63;224553;1275;22568;-78
2023/08/01 11:39:05;;;;;;;3.50;3.20;;;;;;;19.47;79.06;97563.34;224864;1260;26191;-78
2023/08/01 11:44:08;;;;;;;5.40;3.90;;;;;;;19.42;79.51;97563.86;224950;1270;23004;-76
2023/08/01 11:49:15;;;;;;;4.00;3.60;;;;;;;19.39;80.14;97561.40;224796;1257;22537;-78
2023/08/01 11:54:18;;;;;;;4.40;3.30;;;;;;;19.42;80.40;97560.17;224718;1267;22552;-78
2023/08/01 11:59:25;;;;;;;4.70;3.50;;;;;;;19.47;80.66;97555.69;224850;1272;22533;-76
2023/08/01 12:04:28;;;;;;;4.30;3.40;;;;;;;19.59;80.82;97549.44;227419;1267;24197;-79
2023/08/01 12:09:32;;;;;;;4.60;3.60;;;;;;;19.69;80.67;97543.70;227372;1279;22125;-78
2023/08/01 12:14:41;;;;;;;3.60;2.90;;;;;;;19.77;80.55;97537.42;227396;1267;22191;-79
2023/08/01 12:19:45;;;;;;;;;;;;;;;19.83;80.30;97540.67;227392;1274;22904;-79
2023/08/01 12:24:48;;;;;;;3.60;3.20;;;;;;;19.84;80.29;97538.48;227386;1272;22149;-76
2023/08/01 12:29:50;;;;;;;4.30;3.20;;;;;;;19.87;80.04;97543.88;227497;1266;22234;-79
2023/08/01 12:34:53;;;;;;;4.10;3.30;;;;;;;19.81;79.97;97548.73;227312;1273;22116;-77
2023/08/01 12:39:55;;;;;;;3.70;3.30;;;;;;;19.68;80.11;97551.00;227320;1273;22223;-76
2023/08/01 12:44:57;;;;;;;6.30;3.80;;;;;;;19.58;80.48;97550.62;227429;1272;22703;-78
2023/08/01 12:49:59;;;;;;;4.30;3.50;;;;;;;19.37;80.74;97559.95;227441;1272;22167;-78
2023/08/01 12:55:01;;;;;;;4.00;3.60;;;;;;;19.22;81.08;97564.84;227655;1264;22112;-77
2023/08/01 13:00:08;;;;;;;4.80;3.70;;;;;;;19.16;81.53;97561.27;227566;1272;23997;-77
2023/08/01 13:05:15;;;;;;;4.50;4.00;;;;;;;19.15;81.77;97567.16;227327;1273;22606;-77
2023/08/01 13:10:21;;;;;;;4.30;3.80;;;;;;;19.21;82.12;97553.27;227548;1272;22331;-78
2023/08/01 13:15:30;;;;;;;4.80;3.80;;;;;;;19.26;82.15;97545.98;227726;1272;22239;-77
2023/08/01 13:20:33;;;;;;;6.20;4.30;;;;;;;19.27;82.16;97531.25;227474;1272;22159;-77
2023/08/01 13:26:01;;;;;;;;;;;;;;;;;;;;;
2023/08/01 13:31:06;;;;;;;5.20;3.70;;;;;;;19.30;82.42;97514.50;227692;1272;22168;-79
2023/08/01 13:36:09;;;;;;;5.90;4.20;;;;;;;19.33;82.37;97514.64;227481;1272;24252;-78
2023/08/01 13:41:15;;;;;;;5.30;3.80;;;;;;;19.32;82.40;97501.37;227625;1265;22280;-78
2023/08/01 13:46:19;;;;;;;5.40;3.90;;;;;;;19.39;82.63;97492.88;226454;1260;22548;-78
2023/08/01 13:51:50;;;;;;;4.10;3.70;;;;;;;19.57;82.73;97479.56;225573;1272;22549;-77
2023/08/01 13:57:10;;;;;;;6.00;4.80;;;;;;;19.73;82.67;97481.33;225457;1259;22642;-77
2023/08/01 14:03:02;;;;;;;4.20;3.80;;;;;;;19.78;82.29;97484.41;225166;1264;22554;-76
2023/08/01 14:08:31;;;;;;;4.30;3.50;;;;;;;19.76;82.03;97488.06;225236;1279;22580;-76
2023/08/01 14:13:35;;;;;;;3.90;3.50;;;;;;;19.70;82.10;97486.98;225549;1279;22538;-75
2023/08/01 14:18:57;;;;;;;;;;;;;;;;;;;;;
2023/08/01 14:24:42;;;;;;;3.50;3.10;;;;;;;19.61;82.26;97493.84;225609;1262;22537;-75
2023/08/01 14:30:23;;;;;;;3.70;3.40;;;;;;;19.58;82.25;97495.43;225842;1279;22575;-75
2023/08/01 14:36:34;;;;;;;4.60;3.70;;;;;;;19.53;82.30;97491.44;226114;1279;22550;-75
2023/08/01 14:42:08;;;;;;;;;;;;;;;;;;;;;
2023/08/01 14:47:30;;;;;;;4.60;3.90;;;;;;;19.23;82.22;97497.34;225479;1279;22557;-75
2023/08/01 14:52:47;;;;;;;4.40;4.00;;;;;;;18.99;82.80;97503.12;225295;1281;22570;-75
2023/08/01 14:58:38;;;;;;;;;;;;;;;;;;;;;
2023/08/01 15:10:46;;;;;;;4.50;3.80;;;;;;;18.48;83.75;97520.17;225223;1285;22540;-76
2023/08/01 15:16:03;;;;;;;5.80;3.90;;;;;;;18.37;84.20;97522.55;225462;1281;22543;-76
2023/08/01 15:28:09;;;;;;;4.30;3.60;;;;;;;18.24;84.58;97514.27;225803;1278;22490;-76
2023/08/01 15:34:11;;;;;;;4.90;3.70;;;;;;;18.15;84.80;97507.26;226074;1279;22552;-75
2023/08/01 15:39:37;;;;;;;6.20;3.80;;;;;;;18.03;85.28;97499.72;226032;1275;24294;-75
2023/08/01 15:45:36;;;;;;;3.80;3.00;;;;;;;17.88;85.87;97501.27;225166;1285;22547;-75
2023/08/01 15:51:10;;;;;;;3.70;3.20;;;;;;;17.81;86.04;97504.13;225199;1285;22662;-75
2023/08/01 15:56:41;;;;;;;4.30;2.80;;;;;;;17.76;86.26;97507.02;225199;1285;22561;-75
2023/08/01 16:02:37;;;;;;;;;;;;;;;;;;;;;
2023/08/01 16:08:18;;;;;;;;;;;;;;;;;;;;;
2023/08/01 16:14:31;;;;;;;5.00;2.70;;;;;;;17.61;86.67;97522.89;226089;1279;22609;-75
2023/08/01 16:20:56;;;;;;;4.40;2.70;;;;;;;17.58;86.58;97531.31;225698;1279;22533;-75
2023/08/01 16:26:40;;;;;;;3.00;2.70;;;;;;;17.56;86.65;97530.40;225956;1279;22547;-75
2023/08/01 16:32:00;;;;;;;3.20;2.90;;;;;;;17.53;86.79;97525.09;225934;1279;22541;-76
2023/08/01 16:37:28;;;;;;;;;;;;;;;;;;;;;
2023/08/01 16:43:41;;;;;;;3.80;3.20;;;;;;;17.47;86.72;97542.13;226050;1276;25332;-75
2023/08/01 16:49:00;;;;;;;4.50;3.80;;;;;;;17.44;86.87;97553.66;225988;1280;22566;-75
2023/08/01 16:54:34;;;;;;;4.10;3.40;;;;;;;17.41;86.81;97567.79;225937;1280;22554;-74
2023/08/01 17:00:38;;;;;;;4.00;3.50;;;;;;;17.39;87.03;97567.03;226114;1279;22709;-75
2023/08/01 17:06:43;;;;;;;;;;;;;;;;;;;;;
2023/08/01 17:13:04;;;;;;;4.40;3.70;;;;;;;17.36;86.87;97561.38;225928;1280;22557;-75
2023/08/01 17:18:57;;;;;;;3.60;3.20;;;;;;;17.32;86.85;97560.29;226068;1279;22539;-74
2023/08/01 17:24:13;;;;;;;5.10;3.10;;;;;;;17.30;86.86;97552.22;226079;1273;22536;-74
2023/08/01 17:30:14;;;;;;;4.40;3.30;;;;;;;17.27;86.91;97549.38;225906;1263;22506;-74
2023/08/01 17:41:43;;;;;;;3.50;3.20;;;;;;;17.30;86.97;97548.15;226088;1261;22536;-74
2023/08/01 17:47:21;;;;;;;3.20;2.90;;;;;;;17.25;86.77;97554.70;226133;1275;22589;-75
2023/08/01 17:53:45;;;;;;;4.30;2.60;;;;;;;17.17;86.83;97554.61;225308;1284;22662;-75
2023/08/01 18:00:19;;;;;;;4.70;3.70;;;;;;;17.10;87.04;97554.10;225302;1271;22562;-74
2023/08/01 18:06:35;;;;;;;6.40;5.40;;;;;;;17.05;86.94;97553.17;224830;1289;22579;-75
2023/08/01 18:12:19;;;;;;;5.50;4.20;;;;;;;17.02;86.93;97567.36;225255;1284;22550;-74
2023/08/01 18:18:17;;;;;;;5.20;4.10;;;;;;;16.94;87.17;97569.91;225220;1284;22678;-75
2023/08/01 18:23:25;;;;;;;5.00;3.10;;;;;;;16.88;87.25;97572.18;225820;1279;22554;-74
2023/08/01 18:28:39;;;;;;;5.00;3.80;;;;;;;16.84;87.35;97581.13;226057;1279;22549;-75
2023/08/01 18:34:27;;;;;;;5.60;4.10;;;;;;;16.83;87.15;97572.10;226136;1279;22536;-75
2023/08/01 18:40:10;;;;;;;;;;;;;;;;;;;;;
2023/08/01 18:46:14;;;;;;;4.90;3.70;;;;;;;16.79;87.50;97571.48;226036;1279;25712;-74
2023/08/01 18:52:27;;;;;;;;;;;;;;;;;;;;;
2023/08/01 18:58:38;;;;;;;6.30;3.90;;;;;;;16.77;87.34;97573.17;225983;1276;22540;-74
2023/08/01 19:03:55;;;;;;;4.70;3.90;;;;;;;16.72;87.41;97586.54;226044;1279;22541;-73
2023/08/01 19:09:05;;;;;;;7.00;3.80;;;;;;;16.70;87.54;97600.77;226098;1279;24406;-75
2023/08/01 19:14:57;;;;;;;4.60;3.70;;;;;;;16.68;87.46;97605.45;226041;1278;22542;-73
2023/08/01 19:21:14;;;;;;;5.10;3.80;;;;;;;16.66;87.47;97606.07;226147;1279;22524;-74
2023/08/01 19:27:01;;;;;;;;;;;;;;;;;;;;;
2023/08/01 19:33:41;;;;;;;4.50;3.90;;;;;;;16.63;87.36;97602.95;226015;1268;24274;-74
2023/08/01 19:39:51;;;;;;;5.10;3.60;;;;;;;16.62;87.51;97613.27;225939;1279;22548;-74
2023/08/01 19:45:59;;;;;;;4.40;4.00;;;;;;;16.61;87.30;97609.80;225807;1280;22563;-74
2023/08/01 19:52:40;;;;;;;4.00;3.30;;;;;;;16.60;87.49;97606.05;226077;1279;22540;-74
2023/08/01 19:58:56;;;;;;;5.20;3.70;;;;;;;16.58;87.50;97603.27;225046;1284;23174;-75
2023/08/01 20:11:38;;;;;;;;;;;;;;;;;;;;;
2023/08/01 20:17:55;;;;;;;;;;;;;;;;;;;;;
2023/08/01 20:24:38;;;;;;;5.30;4.30;;;;;;;16.50;87.51;97595.89;225904;1279;22547;-75
2023/08/01 20:30:19;;;;;;;4.70;4.10;;;;;;;16.53;87.69;97599.33;226102;1279;25265;-74
2023/08/01 20:36:02;;;;;;;4.30;3.90;;;;;;;16.56;87.68;97606.51;226163;1275;22540;-74
2023/08/01 20:41:28;;;;;;;4.00;3.40;;;;;;;16.58;87.71;97601.09;225919;1280;22563;-75
2023/08/01 20:46:55;;;;;;;;;;;;;;;;;;;;;
2023/08/01 20:53:20;;;;;;;5.60;4.10;;;;;;;16.57;87.85;97594.67;226105;1279;24211;-75
2023/08/01 20:59:32;;;;;;;4.90;3.90;;;;;;;16.59;87.61;97601.89;225712;1279;22544;-74
2023/08/01 21:05:20;;;;;;;6.10;3.70;;;;;;;16.61;87.67;97608.90;225269;1284;22591;-74
2023/08/01 21:11:09;;;;;;;;;;;;;;;;;;;;;
2023/08/01 21:17:13;;;;;;;5.60;3.50;;;;;;;16.61;87.55;97620.46;225311;1284;22663;-74
2023/08/01 21:35:34;;;;;;;;;;;;;;;;;;;;;
2023/08/01 21:47:39;;;;;;;4.40;3.40;;;;;;;16.69;87.54;97636.55;226189;1279;22540;-73
2023/08/01 21:53:40;;;;;;;;;;;;;;;;;;;;;
2023/08/01 21:59:23;;;;;;;5.70;3.70;;;;;;;16.65;87.29;97640.36;225501;1282;22585;-73
2023/08/01 22:10:52;;;;;;;4.50;3.90;;;;;;;16.59;87.36;97644.52;225501;1282;22546;-74
2023/08/01 22:16:43;;;;;;;5.80;3.90;;;;;;;16.60;87.52;97643.93;225710;1279;22536;-73
2023/08/01 22:28:32;;;;;;;;;;;;;;;;;;;;;
2023/08/01 22:40:31;;;;;;;5.40;3.70;;;;;;;16.46;87.75;97640.87;226147;1271;22551;-74
2023/08/01 22:46:30;;;;;;;5.90;3.90;;;;;;;16.38;87.71;97637.11;221981;1279;5353186;-73
2023/08/01 22:52:57;;;;;;;6.20;3.80;;;;;;;16.28;87.84;97637.83;226177;1280;22533;-73
2023/08/01 22:59:01;;;;;;;7.90;4.50;;;;;;;16.17;88.02;97639.92;226154;1279;22647;-74
2023/08/01 23:05:31;;;;;;;;;;;;;;;;;;;;;
2023/08/01 23:11:41;;;;;;;5.60;3.90;;;;;;;16.08;88.30;97645.94;226159;1279;22744;-74
2023/08/01 23:25:21;;;;;;;;;;;;;;;;;;;;;
2023/08/01 23:31:23;;;;;;;;;;;;;;;;;;;;;
2023/08/01 23:38:31;;;;;;;4.60;4.10;;;;;;;16.05;89.07;97658.20;225677;1280;22540;-75
2023/08/01 23:44:33;;;;;;;;;;;;;;;;;;;;;
2023/08/01 23:51:07;;;;;;;;;;;;;;;;;;;;;
